createdAt,value
2023-04-26T00:00:16.010Z,63.800000
2023-04-26T00:05:18.351Z,62.866667
2023-04-26T00:10:20.266Z,61.800000
2023-04-26T00:15:22.687Z,61.071429
2023-04-26T00:20:25.214Z,60.333333
2023-04-26T00:25:27.447Z,60.466667
2023-04-26T00:30:29.541Z,60.866667
2023-04-26T00:35:31.544Z,61.666667
2023-04-26T00:40:33.808Z,62.133333
2023-04-26T00:45:15.976Z,63.133333
2023-04-26T00:50:18.375Z,63.533333
2023-04-26T00:55:20.816Z,63.266667
2023-04-26T01:00:23.077Z,63.214286
2023-04-26T01:05:24.938Z,62.533333
2023-04-26T01:10:26.881Z,63.066667
2023-04-26T01:15:28.792Z,63.600000
2023-04-26T01:20:30.956Z,63.933333
2023-04-26T01:25:32.904Z,63.133333
2023-04-26T01:30:34.983Z,63.000000
2023-04-26T01:35:16.731Z,63.000000
2023-04-26T01:40:18.964Z,63.000000
2023-04-26T01:45:21.412Z,63.333333
2023-04-26T01:50:23.298Z,63.500000
2023-04-26T01:55:25.782Z,63.333333
2023-04-26T02:00:27.693Z,64.200000
2023-04-26T02:05:29.954Z,65.333333
2023-04-26T02:10:32.411Z,66.600000
2023-04-26T02:15:34.735Z,68.000000
2023-04-26T02:20:16.450Z,69.266667
2023-04-26T02:25:18.709Z,70.000000
2023-04-26T02:30:20.945Z,71.266667
2023-04-26T02:35:22.677Z,72.000000
2023-04-26T02:40:24.825Z,72.400000
2023-04-26T02:45:26.802Z,72.866667
2023-04-26T02:50:28.585Z,73.000000
2023-04-26T02:55:31.606Z,73.466667
2023-04-26T03:00:33.822Z,74.000000
2023-04-26T03:05:35.605Z,74.000000
2023-04-26T03:10:17.492Z,74.000000
2023-04-26T03:15:19.426Z,74.933333
2023-04-26T03:20:21.552Z,75.333333
2023-04-26T03:25:23.848Z,76.714286
2023-04-26T03:30:26.082Z,78.533333
2023-04-26T03:35:28.453Z,79.200000
2023-04-26T03:40:30.786Z,80.000000
2023-04-26T03:45:33.597Z,80.000000
2023-04-26T03:50:16.034Z,80.333333
2023-04-26T03:55:18.261Z,80.333333
2023-04-26T04:00:20.217Z,80.000000
2023-04-26T04:05:23.397Z,80.000000
2023-04-26T04:10:25.226Z,80.666667
2023-04-26T04:15:27.733Z,81.200000
2023-04-26T04:20:30.395Z,82.000000
2023-04-26T04:25:33.757Z,82.666667
2023-04-26T04:30:15.989Z,83.000000
2023-04-26T04:35:18.493Z,84.000000
2023-04-26T04:40:21.697Z,84.333333
2023-04-26T04:45:24.706Z,85.000000
2023-04-26T04:50:28.565Z,85.000000
2023-04-26T04:55:31.734Z,85.533333
2023-04-26T05:00:34.766Z,86.000000
2023-04-26T05:05:16.950Z,86.666667
2023-04-26T05:10:20.018Z,87.000000
2023-04-26T05:15:23.158Z,87.000000
2023-04-26T05:20:26.006Z,87.000000
2023-04-26T05:25:28.786Z,87.000000
2023-04-26T05:30:31.576Z,87.000000
2023-04-26T05:35:34.171Z,86.933333
2023-04-26T05:40:16.954Z,86.000000
2023-04-26T05:45:20.151Z,86.000000
2023-04-26T05:50:22.760Z,86.000000
2023-04-26T05:55:25.513Z,86.000000
2023-04-26T06:00:28.207Z,86.000000
2023-04-26T06:05:31.421Z,86.000000
2023-04-26T06:10:33.780Z,86.000000
2023-04-26T06:15:16.520Z,86.000000
2023-04-26T06:20:19.585Z,86.333333
2023-04-26T06:25:22.606Z,87.000000
2023-04-26T06:30:24.837Z,87.000000
2023-04-26T06:35:27.091Z,87.000000
2023-04-26T06:40:29.585Z,87.000000
2023-04-26T06:45:32.358Z,86.266667
2023-04-26T06:50:34.601Z,86.000000
2023-04-26T06:55:17.052Z,87.000000
2023-04-26T07:00:20.377Z,87.000000
2023-04-26T07:05:22.447Z,87.000000
2023-04-26T07:10:25.002Z,87.000000
2023-04-26T07:15:29.270Z,87.000000
2023-04-26T07:20:30.919Z,87.000000
2023-04-26T07:25:33.444Z,86.333333
2023-04-26T07:30:16.001Z,87.000000
2023-04-26T07:35:18.466Z,87.066667
2023-04-26T07:40:21.009Z,88.000000
2023-04-26T07:45:23.440Z,88.071429
2023-04-26T07:50:26.086Z,89.000000
2023-04-26T07:55:28.731Z,89.000000
2023-04-26T08:00:31.985Z,89.000000
2023-04-26T08:05:34.290Z,89.000000
2023-04-26T08:10:17.037Z,89.400000
2023-04-26T08:15:20.260Z,89.733333
2023-04-26T08:20:24.529Z,89.642857
2023-04-26T08:25:25.777Z,89.000000
2023-04-26T08:30:28.501Z,89.000000
2023-04-26T08:35:31.165Z,89.000000
2023-04-26T08:40:33.300Z,88.600000
2023-04-26T08:45:17.447Z,88.000000
2023-04-26T08:50:20.433Z,88.533333
2023-04-26T08:55:22.945Z,89.000000
2023-04-26T09:00:26.254Z,89.000000
2023-04-26T09:05:29.450Z,89.000000
2023-04-26T09:10:31.869Z,88.666667
2023-04-26T09:15:34.464Z,88.000000
2023-04-26T09:20:16.729Z,88.000000
2023-04-26T09:25:19.295Z,88.000000
2023-04-26T09:30:21.974Z,87.666667
2023-04-26T09:35:24.454Z,87.214286
2023-04-26T09:40:27.277Z,87.000000
2023-04-26T09:45:30.047Z,87.000000
2023-04-26T09:50:33.373Z,87.000000
2023-04-26T09:55:36.152Z,87.000000
2023-04-26T10:00:18.513Z,87.000000
2023-04-26T10:05:22.098Z,87.428571
2023-04-26T10:10:24.843Z,88.000000
2023-04-26T10:15:27.585Z,88.000000
2023-04-26T10:20:30.341Z,88.666667
2023-04-26T10:25:32.610Z,89.000000
2023-04-26T10:30:35.165Z,89.266667
2023-04-26T10:35:17.419Z,90.000000
2023-04-26T10:40:19.988Z,89.133333
2023-04-26T10:45:22.661Z,89.000000
2023-04-26T10:50:25.202Z,89.000000
2023-04-26T10:55:27.605Z,89.000000
2023-04-26T11:00:32.467Z,89.333333
2023-04-26T11:05:33.706Z,89.400000
2023-04-26T11:10:15.934Z,88.600000
2023-04-26T11:15:18.912Z,88.000000
2023-04-26T11:20:21.728Z,87.133333
2023-04-26T11:25:24.305Z,87.000000
2023-04-26T11:30:26.728Z,87.000000
2023-04-26T11:35:29.659Z,86.933333
2023-04-26T11:40:32.114Z,87.733333
2023-04-26T11:45:34.519Z,89.466667
2023-04-26T11:50:18.208Z,90.466667
2023-04-26T11:55:20.977Z,91.000000
2023-04-26T12:00:24.072Z,91.928571
2023-04-26T12:05:26.733Z,92.333333
2023-04-26T12:10:29.547Z,93.000000
2023-04-26T12:15:31.964Z,93.000000
2023-04-26T12:20:35.639Z,93.600000
2023-04-26T12:25:16.839Z,93.133333
2023-04-26T12:30:20.086Z,93.600000
2023-04-26T12:35:22.593Z,93.928571
2023-04-26T12:40:25.216Z,93.933333
2023-04-26T12:45:27.862Z,94.000000
2023-04-26T12:50:30.726Z,93.733333
2023-04-26T12:55:33.179Z,93.000000
2023-04-26T13:00:36.183Z,92.933333
2023-04-26T13:05:18.056Z,92.000000
2023-04-26T13:10:20.821Z,91.000000
2023-04-26T13:15:23.417Z,89.571429
2023-04-26T13:20:27.800Z,88.066667
2023-04-26T13:25:28.781Z,87.800000
2023-04-26T13:30:30.953Z,87.000000
2023-04-26T13:35:33.628Z,87.000000
2023-04-26T13:40:16.007Z,86.200000
2023-04-26T13:45:19.443Z,84.533333
2023-04-26T13:50:21.558Z,83.533333
2023-04-26T13:55:23.932Z,79.857143
2023-04-26T14:00:26.628Z,79.000000
2023-04-26T14:05:29.026Z,79.333333
2023-04-26T14:10:31.531Z,80.600000
2023-04-26T14:15:33.807Z,81.000000
2023-04-26T14:20:15.873Z,80.000000
2023-04-26T14:25:18.235Z,78.800000
2023-04-26T14:30:20.547Z,77.933333
2023-04-26T14:35:22.657Z,77.142857
2023-04-26T14:40:25.200Z,77.000000
2023-04-26T14:45:40.931Z,77.466667
2023-04-26T14:50:30.641Z,78.533333
2023-04-26T14:55:33.149Z,79.933333
2023-04-26T15:00:35.656Z,79.466667
2023-04-26T15:05:18.288Z,78.733333
2023-04-26T15:10:21.089Z,77.533333
2023-04-26T15:15:23.882Z,77.000000
2023-04-26T15:20:26.300Z,76.400000
2023-04-26T15:25:28.773Z,76.200000
2023-04-26T15:30:30.685Z,76.266667
2023-04-26T15:35:32.912Z,74.600000
2023-04-26T15:40:36.909Z,74.466667
2023-04-26T15:45:17.515Z,73.666667
2023-04-26T15:50:19.899Z,73.200000
2023-04-26T15:55:23.344Z,72.928571
2023-04-26T16:00:25.997Z,72.466667
2023-04-26T16:05:28.551Z,71.000000
2023-04-26T16:10:31.408Z,71.733333
2023-04-26T16:15:33.455Z,71.466667
2023-04-26T16:20:35.952Z,71.200000
2023-04-26T16:25:18.482Z,69.533333
2023-04-26T16:30:21.367Z,66.933333
2023-04-26T16:35:24.134Z,65.785714
2023-04-26T16:40:26.937Z,66.200000
2023-04-26T16:45:29.280Z,65.533333
2023-04-26T16:50:32.535Z,63.933333
2023-04-26T16:55:35.058Z,65.466667
2023-04-26T17:00:17.438Z,65.600000
2023-04-26T17:05:20.452Z,65.600000
2023-04-26T17:10:23.011Z,65.642857
2023-04-26T17:15:25.712Z,63.666667
2023-04-26T17:20:28.493Z,62.333333
2023-04-26T17:25:30.945Z,62.733333
2023-04-26T17:30:33.786Z,61.800000
2023-04-26T17:35:16.684Z,62.333333
2023-04-26T17:40:19.223Z,60.600000
2023-04-26T17:45:21.836Z,59.600000
2023-04-26T17:50:24.107Z,57.928571
2023-04-26T17:55:27.152Z,57.800000
2023-04-26T18:00:29.949Z,59.066667
2023-04-26T18:05:33.142Z,61.200000
2023-04-26T18:10:35.648Z,61.266667
2023-04-26T18:15:18.278Z,60.066667
2023-04-26T18:20:21.021Z,59.000000
2023-04-26T18:25:23.982Z,59.928571
2023-04-26T18:30:27.059Z,57.666667
2023-04-26T18:35:30.005Z,58.800000
2023-04-26T18:40:32.921Z,56.800000
2023-04-26T18:45:36.003Z,56.133333
2023-04-26T18:50:18.184Z,55.600000
2023-04-26T18:55:21.110Z,55.133333
2023-04-26T19:00:24.462Z,55.142857
2023-04-26T19:05:27.398Z,53.866667
2023-04-26T19:10:30.226Z,52.000000
2023-04-26T19:15:32.587Z,50.600000
2023-04-26T19:20:35.617Z,49.333333
2023-04-26T19:25:17.878Z,47.733333
2023-04-26T19:30:21.053Z,46.666667
2023-04-26T19:35:23.697Z,46.500000
2023-04-26T19:40:26.508Z,47.600000
2023-04-26T19:45:29.193Z,47.733333
2023-04-26T19:50:31.584Z,45.333333
2023-04-26T19:55:34.432Z,44.400000
2023-04-26T20:00:16.772Z,44.933333
2023-04-26T20:05:19.474Z,44.866667
2023-04-26T20:10:22.023Z,44.800000
2023-04-26T20:15:24.809Z,44.642857
2023-04-26T20:20:27.389Z,42.933333
2023-04-26T20:25:30.766Z,43.466667
2023-04-26T20:30:33.642Z,44.400000
2023-04-26T20:35:16.039Z,42.866667
2023-04-26T20:40:18.391Z,43.466667
2023-04-26T20:45:21.365Z,43.133333
2023-04-26T20:50:23.982Z,42.357143
2023-04-26T20:55:26.886Z,41.600000
2023-04-26T21:00:29.126Z,42.400000
2023-04-26T21:05:32.946Z,42.533333
2023-04-26T21:10:36.420Z,41.400000
2023-04-26T21:15:18.418Z,41.666667
2023-04-26T21:20:21.927Z,40.733333
2023-04-26T21:25:24.281Z,40.142857
2023-04-26T21:30:26.877Z,40.333333
2023-04-26T21:35:29.354Z,38.800000
2023-04-26T21:40:31.632Z,38.333333
2023-04-26T21:45:34.985Z,39.333333
2023-04-26T21:50:17.408Z,39.400000
2023-04-26T21:55:20.341Z,40.400000
2023-04-26T22:00:22.937Z,38.642857
2023-04-26T22:05:25.385Z,38.266667
2023-04-26T22:10:28.072Z,36.533333
2023-04-26T22:15:30.914Z,38.666667
2023-04-26T22:20:33.558Z,37.400000
2023-04-26T22:25:16.194Z,35.866667
2023-04-26T22:30:25.620Z,37.400000
2023-04-26T22:35:21.703Z,38.200000
2023-04-26T22:40:24.621Z,37.571429
2023-04-26T22:45:27.802Z,38.800000
2023-04-26T22:50:30.329Z,39.600000
2023-04-26T22:55:33.619Z,41.133333
2023-04-26T23:00:16.156Z,42.133333
2023-04-26T23:05:19.110Z,42.666667
2023-04-26T23:10:21.980Z,43.066667
2023-04-26T23:15:24.346Z,42.500000
2023-04-26T23:20:27.145Z,43.733333
2023-04-26T23:25:30.094Z,44.466667
2023-04-26T23:30:32.614Z,44.400000
2023-04-26T23:35:34.578Z,43.266667
2023-04-26T23:40:17.004Z,41.733333
2023-04-26T23:45:19.646Z,40.133333
2023-04-26T23:50:21.887Z,39.200000
2023-04-26T23:55:24.062Z,39.285714
